航空気象通報

ウインドサーファーのための航空気象通報による風予報です。

4/29-4/30の航空気象通報(国内、海外)

2013年04月30日 00時13分24秒 | TAF

羽田空港
TAF AMD RJTT 291141Z 2911/3012 21018KT 9999 FEW030
BECMG 2921/2924 21020G30KT
TEMPO 3000/3009 20030G40KT
日本時間29日20時-30日06時:210度から18ノットの風
06-09時:風が変化
09-21時:210度から20ノット、突風30ノット
但し、09-18時の間:ときどき200度から30ノット、突風40ノット

静岡空港
TAF RJNS 290849Z 2909/3012 25010KT 9999 FEW020 SCT040
TEMPO 3000/3003 24018G28KT
TEMPO 3003/3006 24018G28KT 3000 TSRA BR BKN008 BKN015 FEW020CB
日本時間29日18時-30日21時:250度から10ノットの風
但し、30日09-15時の間:ときどき240度から18ノット、突風28ノット

但し、30日09-12時の間:ときどき

福岡空港
TAF RJFF 290845Z 2909/3012 16010KT 9999 FEW030 SCT040
BECMG 2915/2917 28010KT
TEMPO 2915/2918 3000 TSRA BR FEW008 SCT015 BKN020 FEW020CB
BECMG 2921/2924 14003KT
BECMG 3003/3006 30008KT
BECMG 3009/3012 16005KT
日本時間29日18-24時:160度から10ノットの風
30日00-02時:風が変化
02-06時:280度から10ノットの風
06-09時:風が変化
09-12時:140度から3ノットの風
12-15時:風が変化
15-18時:300度から8ノットの風
18-21時:風が変化
21時:160度から5ノットの風

但し、30日00-03時の間:ときどき

那覇空港
TAF ROAH 290839Z 2909/3012 15006KT 9999 FEW015
BECMG 3003/3006 21010KT
日本時間29日18時-30日12時:150度から6ノットの風
12-21時:210度から10ノットの風

マウイのカフルイ空港
PHOG 291120Z 2912/3012 16003KT P6SM FEW050
FM292100 02011KT P6SM SCT050
FM300500 36004KT P6SM SCT050
FM300900 15004KT P6SM SCT060 AMD LTD TO WX VIS AND WIND TIL 291600
ハワイ時間29日02-11時:160度から3ノットの風
11-19時:020度から11ノットの風
19-23時:360度から4ノットの風
23時-30日02時:150度から4ノットの風

サイパン空港
PGSN 291120Z 2912/3012 08009KT P6SM VCSH FEW018 SCT110
マリアナ時間29日22時-30日22時:080度から9ノットの風

コメント
この記事をはてなブックマークに追加

4/27-4/28の航空気象通報(国内、海外)

2013年04月27日 22時32分52秒 | TAF

羽田空港
TAF AMD RJTT 271113Z 2711/2812 35020KT 9999 FEW030
TEMPO 2711/2715 35025G35KT
BECMG 2800/2803 01010KT
BECMG 2803/2806 18015KT
BECMG 2809/2812 30008KT
日本時間27日20時-28日09時:350度から20ノットの風
但し、27日20-24時の間:ときどき350度から25ノット、突風35ノット
28日09-12時:風が変化
12時:010度から10ノットの風
12-15時:風が変化
15-18時:180度から15ノットの風
18-21時:風が変化
21時:300度から8ノットの風

静岡空港
TAF RJNS 270842Z 2709/2812 27016KT 9999 FEW030
TEMPO 2709/2712 27020G30KT
BECMG 2721/2724 27006KT
BECMG 2800/2803 16006KT
BECMG 2809/2812 30008KT
日本時間27日18時-28日06時:270度から16ノットの風
但し、27日18-21時の間:ときどき270度から20ノット、突風30ノット
28日06-09時:風が変化
09時:270度から6ノットの風
09-12時:風が変化
12-18時:160度から6ノットの風
18-21時:風が変化
21時:300度から8ノットの風

福岡空港
TAF RJFF 270839Z 2709/2812 34008KT 9999 FEW040
BECMG 2713/2715 14005KT
BECMG 2803/2806 30008KT
BECMG 2809/2812 14006KT
日本時間27日18-22時:340度から8ノットの風
22-24時:風が変化
28日00-12時:140度から5ノットの風
12-15時:風が変化
15-18時:300度から8ノットの風
18-21時:風が変化
21時:140度から6ノットの風

那覇空港
TAF ROAH 270836Z 2709/2812 10006KT 9999 FEW035
日本時間27日18時-28日21時:100度から6ノットの風

マウイのカフルイ空港
PHOG 271137Z 2712/2812 VRB05KT P6SM FEW045
FM272000 06013G19KT P6SM FEW045
FM280700 VRB05KT P6SM FEW045 AMD LTD TO WX VIS AND WIND TIL 271600
ハワイ時間27日02-10時:風向不定5ノットの風
10-21時:060度から13ノット、突風19ノット
21時-27日02時:風向不定5ノットの風

サイパン空港
PGSN 271120Z 2712/2812 08008KT P6SM SCT018 BKN110
FM272100 08012KT P6SM VCSH SCT020 SCT040
マリアナ時間27日22時-28日11時:080度から8ノットの風

11-22時:080度から12ノットの風

コメント
この記事をはてなブックマークに追加

4/25-4/26の航空気象通報(国内、海外)

2013年04月25日 21時02分23秒 | TAF

羽田空港
TAF RJTT 250850Z 2509/2612 17016KT 9999 FEW030
BECMG 2511/2513 16006KT
BECMG 2521/2524 18016KT
TEMPO 2603/2606 20025G35KT
BECMG 2606/2609 34018KT
TEMPO 2606/2609 34018G28KT 4000 TSRA SCT020 FEW030CB BKN04
日本時間25日18-20時:170度から16ノットの風
20-22時:風が変化
22時-26日06時:160度から6ノットの風
06-09時:風が変化
09-15時:180度から16ノットの風
但し、12-15時の間:ときどき200度から25ノット、突風35ノット
15-18時:風が変化
18-21時:340度から18ノットの風
但し、15-18時の間:ときどき340度から18ノット、突風28ノット

但し、26日15-18時の間:ときどき

静岡空港
TAF RJNS 250840Z 2509/2612 15006KT 9999 FEW030 SCT040
BECMG 2510/2512 32004KT
BECMG 2521/2524 24010KT
BECMG 2603/2606 24020KT
TEMPO 2606/2612 27020G30KT
日本時間25日18-19時:150度から6ノットの風
19-21時:風が変化
21時-26日06時:320度から4ノットの風
06-09時:風が変化
09-12時:240度から10ノットの風
12-15時:風が変化
15-21時:240度から20ノットの風
但し、15-21時の間:ときどき270度から20ノット、突風30ノット

福岡空港
TAF RJFF 250844Z 2509/2612 27008KT 9000 FEW020 SCT030
BECMG 2511/2513 18008KT
BECMG 2515/2517 27010KT
TEMPO 2600/2609 28015G25KT
日本時間25日18-20時:270度から8ノットの風
20-22時:風が変化
22-24時:180度から8ノットの風
26日00-02時:風が変化
02-21時:270度から10ノットの風
但し、09-18時の間:ときどき280度から15ノット、突風25ノット

那覇空港
TAF ROAH 250839Z 2509/2612 01008KT 9999 FEW015 BKN030
BECMG 2603/2606 01018KT
日本時間21日18時-26日12時:010度から8ノットの風
12-15時:風が変化
15-21時:010度から18ノットの風

マウイのカフルイ空港
PHOG 251133Z 2512/2612 VRB05KT P6SM FEW050
FM251900 05016G25KT P6SM FEW030 SCT050
FM260600 06010KT P6SM FEW030 SCT050 AMD LTD TO WX VIS AND WIND TIL 251600
ハワイ時間25日02-09時:風向不定5ノットの風
09-20時:050度から16ノット、突風25ノット
20時-26日02時:060度から10ノットの風

サイパン空港
PGSN 251124Z 2512/2612 07009KT P6SM VCSH SCT018 SCT035 BKN110
マリアナ時間25日22時-26日22時:070度から9ノットの風

コメント
この記事をはてなブックマークに追加

4/21-4/22の航空気象通報(国内、海外)

2013年04月21日 22時23分17秒 | TAF

羽田空港
TAF AMD RJTT 211139Z 2111/2212 04010KT 9999 FEW030
BECMG 2111/2113 35020KT
BECMG 2203/2206 05012KT
日本時間21日18-20時:040度から10ノットの風
20-22時:風が変化
22時-22日12時:350度から20ノットの風
12-15時:風が変化
15-21時:050度から12ノットの風

静岡空港
TAF RJNS 210838Z 2109/2212 08006KT 9999 FEW020 BKN040
BECMG 2112/2114 34004KT
BECMG 2200/2203 16012KT
BECMG 2209/2212 06005KT
日本時間21日18-21時:080度から6ノットの風
21-23時:風が変化
23時-22日09時:340度から4ノットの風
09-12時:風が変化
12-18時:160度から12ノットの風
18-21時:風が変化
21時:060度から5ノットの風

福岡空港
TAF RJFF 210843Z 2109/2212 01009KT 9999 FEW030
BECMG 2111/2113 14004KT
BECMG 2200/2203 34010KT
日本時間21日18-20時:010度から9ノットの風
20-22時:風が変化
22時-22日09時:140度から4ノットの風
09-12時:風が変化
12-21時:340度から10ノットの風

那覇空港
TAF ROAH 210837Z 2109/2212 03011KT 9999 FEW025 SCT045
日本時間21日18時-22日21時:030度から11ノットの風

マウイのカフルイ空港
PHOG 211120Z 2112/2212 14005KT P6SM FEW050
FM212000 02008KT P6SM SCT050
FM220500 VRB05KT P6SM SCT050 AMD LTD TO WX VIS AND WIND TIL 211600
ハワイ時間21日02-10時:140度から5ノットの風
10-19時:020度から8ノットの風
19時-22日02時:風向不定5ノットの風

サイパン空港
PGSN 211128Z 2112/2212 09007KT P6SM VCSH SCT020 SCT110
マリアナ時間21日22時-22日22時:090度から7ノットの風

コメント
この記事をはてなブックマークに追加

4/20-4/21の航空気象通報(国内、海外)

2013年04月20日 22時57分47秒 | TAF

羽田空港
TAF RJTT 200839Z 2009/2112 35016KT 6000 -RA FEW010 BKN020
TEMPO 2009/2015 3000 RA BR FEW006 BKN008 BKN015
TEMPO 2015/2021 4000 -RA BR FEW006 BKN008 BKN015
TEMPO 2021/2024 2500 RA BR FEW004 BKN005 BKN015
TEMPO 2100/2103 4000 -RA BR FEW006 BKN008 BKN015
日本時間20日18時-21日21時:350度から16ノットの風

静岡空港
TAF RJNS 200844Z 2009/2112 05008KT 8000 SCT010 BKN020
BECMG 2013/2015 36004KT
TEMPO 2013/2018 3000 -RA BR FEW003 BKN005
TEMPO 2018/2021 3000 SHRA BR SCT005 BKN008
BECMG 2021/2024 27018KT
TEMPO 2100/2109 27020G30KT
日本時間20日18-22時:050度から8ノットの風
22-24時:風が変化
21日00-06時:360度から4ノットの風
06-09時:風が変化
09-21時:270度から18ノットの風
但し、09-18時の間:ときどき270度から20ノット、突風30ノット

但し、20日22時-21日06時の間:ときどき

福岡空港
TAF RJFF 200848Z 2009/2112 36007KT 9000 -RA FEW010 BKN020 BKN025
TEMPO 2009/2011 4000 RA BR
TEMPO 2100/2106 35016G26KT
日本時間20日18時-21日21時:360度から7ノットの風
但し、21日09-15時:350度から16ノット、突風36ノット

那覇空港
TAF AMD ROAH 200952Z 2009/2112 24012KT 9999 FEW010 BKN020
TEMPO 2009/2013 3000 +SHRA FEW008 BKN015 FEW020CB
BECMG 2011/2013 33022KT
BECMG 2109/2112 03010KT
日本時間20日18-20時:240度から12ノットの風
20-22時:風が変化
22時-21日18時:330度から22ノットの風
18-21時:風が変化
21時:030度から10ノットの風

但し、20日18-22時の間:ときどき

マウイのカフルイ空港
PHOG 201120Z 2012/2112 12006KT P6SM FEW030 BKN050
FM202000 03012KT P6SM SCT050
FM210400 07010KT P6SM SCT050 AMD LTD TO WX VIS AND WIND TIL 201600
ハワイ時間20日02-10時:120度から6ノットの風

10-18時:070度から15ノット、突風22ノット
18時-21日02時:070度から10ノットの風

サイパン空港
PGSN 201120Z 2012/2112 06008KT P6SM VCSH SCT020 SCT100
マリアナ時間20日22時-21日22時:060度から8ノットの風

コメント
この記事をはてなブックマークに追加